createdAt,value
2017-06-10T00:00:23.385Z,9.97
2017-06-10T00:02:50.977Z,16.30
2017-06-10T00:05:18.606Z,10.23
2017-06-10T00:07:46.168Z,8.80
2017-06-10T00:10:13.703Z,8.10
2017-06-10T00:12:41.257Z,9.37
2017-06-10T00:15:08.831Z,6.80
2017-06-10T00:17:36.435Z,11.90
2017-06-10T00:20:04.063Z,6.63
2017-06-10T00:22:31.624Z,9.47
2017-06-10T00:24:59.206Z,9.57
2017-06-10T00:27:26.840Z,8.37
2017-06-10T00:29:54.389Z,6.33
2017-06-10T00:32:22.005Z,9.90
2017-06-10T00:34:49.539Z,6.20
2017-06-10T00:37:17.086Z,6.47
2017-06-10T00:39:44.677Z,8.93
2017-06-10T00:42:12.251Z,8.37
2017-06-10T00:44:39.846Z,12.00
2017-06-10T00:47:07.457Z,5.63
2017-06-10T00:49:35.001Z,8.20
2017-06-10T00:52:02.563Z,5.13
2017-06-10T00:54:30.134Z,7.20
2017-06-10T00:56:57.787Z,13.87
2017-06-10T00:59:25.328Z,6.60
2017-06-10T01:01:52.893Z,6.87
2017-06-10T01:04:20.424Z,13.53
2017-06-10T01:06:48.758Z,6.83
2017-06-10T01:09:16.320Z,6.43
2017-06-10T01:11:43.907Z,8.23
2017-06-10T01:14:11.467Z,6.13
2017-06-10T01:16:39.810Z,4.90
2017-06-10T01:19:07.403Z,5.70
2017-06-10T01:21:34.935Z,7.33
2017-06-10T01:24:02.476Z,8.00
2017-06-10T01:26:30.006Z,5.30
2017-06-10T01:28:58.336Z,7.80
2017-06-10T01:31:25.921Z,9.37
2017-06-10T01:33:53.450Z,8.33
2017-06-10T01:36:20.997Z,6.40
2017-06-10T01:38:48.535Z,7.37
2017-06-10T01:41:16.128Z,14.50
2017-06-10T01:43:43.689Z,6.13
2017-06-10T01:46:11.254Z,7.67
2017-06-10T01:48:38.864Z,14.03
2017-06-10T01:51:07.171Z,11.23
2017-06-10T01:53:34.706Z,9.93
2017-06-10T01:56:03.002Z,9.90
2017-06-10T01:58:31.517Z,5.20
2017-06-10T02:00:59.046Z,7.20
2017-06-10T02:03:26.602Z,8.97
2017-06-10T02:05:54.183Z,5.37
2017-06-10T02:08:21.763Z,14.67
2017-06-10T02:10:49.323Z,4.73
2017-06-10T02:13:16.862Z,8.20
2017-06-10T02:15:44.405Z,6.30
2017-06-10T02:18:12.017Z,9.30
2017-06-10T02:20:39.552Z,8.30
2017-06-10T02:23:07.214Z,5.00
2017-06-10T02:25:34.763Z,4.83
2017-06-10T02:28:02.311Z,10.63
2017-06-10T02:30:29.851Z,7.40
2017-06-10T02:32:57.461Z,10.67
2017-06-10T02:35:24.999Z,5.70
2017-06-10T02:37:52.554Z,8.37
2017-06-10T02:40:20.166Z,4.80
2017-06-10T02:42:47.699Z,7.63
2017-06-10T02:45:15.272Z,4.63
2017-06-10T02:47:42.848Z,5.63
2017-06-10T02:50:10.398Z,4.33
2017-06-10T02:52:37.930Z,10.00
2017-06-10T02:55:05.505Z,10.10
2017-06-10T02:57:33.186Z,15.03
2017-06-10T03:00:00.714Z,8.40
2017-06-10T03:02:28.247Z,9.63
2017-06-10T03:04:56.583Z,29.37
2017-06-10T03:07:24.134Z,19.40
2017-06-10T03:09:51.694Z,7.10
2017-06-10T03:12:19.235Z,7.00
2017-06-10T03:14:46.822Z,21.63
2017-06-10T03:17:14.406Z,16.27
2017-06-10T03:19:41.947Z,13.50
2017-06-10T03:22:09.491Z,7.90
2017-06-10T03:24:37.091Z,5.20
2017-06-10T03:27:04.627Z,5.70
2017-06-10T03:29:32.194Z,5.03
2017-06-10T03:31:59.754Z,6.50
2017-06-10T03:34:27.295Z,5.10
2017-06-10T03:36:54.834Z,10.10
2017-06-10T03:39:22.362Z,7.37
2017-06-10T03:41:49.897Z,8.90
2017-06-10T03:44:17.449Z,7.03
2017-06-10T03:46:45.009Z,6.37
2017-06-10T03:49:12.582Z,12.30
2017-06-10T03:51:40.117Z,5.67
2017-06-10T03:54:07.690Z,8.83
2017-06-10T03:56:35.249Z,8.70
2017-06-10T03:59:02.811Z,21.63
2017-06-10T04:01:30.355Z,11.30
2017-06-10T04:03:57.942Z,10.93
2017-06-10T04:09:19.574Z,15.67
2017-06-10T04:11:47.180Z,17.13
2017-06-10T04:14:15.486Z,16.30
2017-06-10T04:16:43.116Z,12.40
2017-06-10T04:19:10.662Z,14.63
2017-06-10T04:21:38.203Z,7.67
2017-06-10T04:24:05.858Z,7.93
2017-06-10T04:26:33.422Z,10.77
2017-06-10T04:29:00.967Z,5.47
2017-06-10T04:31:28.510Z,7.97
2017-06-10T04:33:56.103Z,11.17
2017-06-10T04:36:23.675Z,10.73
2017-06-10T04:38:51.206Z,8.43
2017-06-10T04:41:18.805Z,9.70
2017-06-10T04:43:46.380Z,7.60
2017-06-10T04:46:13.944Z,13.40
2017-06-10T04:48:41.577Z,6.53
2017-06-10T04:51:09.151Z,6.13
2017-06-10T04:53:36.790Z,11.27
2017-06-10T04:56:04.331Z,7.67
2017-06-10T04:58:31.929Z,9.20
2017-06-10T05:00:59.482Z,12.93
2017-06-10T05:03:27.027Z,40.40
2017-06-10T05:05:54.711Z,9.50
2017-06-10T05:08:22.245Z,8.13
2017-06-10T05:10:49.793Z,26.10
2017-06-10T05:13:17.433Z,38.37
2017-06-10T05:15:44.969Z,21.77
2017-06-10T05:18:12.606Z,22.80
2017-06-10T05:20:40.273Z,16.77
2017-06-10T05:23:07.953Z,26.67
2017-06-10T05:25:35.602Z,14.20
2017-06-10T05:28:03.164Z,16.33
2017-06-10T05:30:30.721Z,10.70
2017-06-10T05:32:58.282Z,9.27
2017-06-10T05:35:25.817Z,16.73
2017-06-10T05:37:53.350Z,6.37
2017-06-10T05:40:21.779Z,7.37
2017-06-10T05:42:49.437Z,13.00
2017-06-10T05:45:17.002Z,7.60
2017-06-10T05:47:44.538Z,11.20
2017-06-10T05:50:12.065Z,7.63
2017-06-10T05:52:39.686Z,6.50
2017-06-10T05:55:07.249Z,10.37
2017-06-10T05:57:34.806Z,12.90
2017-06-10T06:00:02.348Z,8.20
2017-06-10T06:02:29.882Z,9.17
2017-06-10T06:04:58.184Z,7.97
2017-06-10T06:07:25.771Z,9.17
2017-06-10T06:09:53.326Z,13.20
2017-06-10T06:12:20.894Z,8.03
2017-06-10T06:14:49.368Z,8.00
2017-06-10T06:17:16.910Z,10.00
2017-06-10T06:19:44.489Z,10.90
2017-06-10T06:22:12.034Z,11.00
2017-06-10T06:24:39.565Z,6.60
2017-06-10T06:27:07.911Z,14.90
2017-06-10T06:29:35.559Z,12.77
2017-06-10T06:32:03.122Z,12.37
2017-06-10T06:34:30.690Z,7.87
2017-06-10T06:36:58.242Z,8.50
2017-06-10T06:39:39.082Z,13.70
2017-06-10T06:42:06.670Z,4.50
2017-06-10T06:44:34.237Z,9.83
2017-06-10T06:47:01.806Z,10.20
2017-06-10T06:49:29.352Z,11.47
2017-06-10T06:51:56.945Z,14.70
2017-06-10T06:54:24.502Z,11.63
2017-06-10T06:56:52.134Z,9.57
2017-06-10T06:59:19.670Z,9.40
2017-06-10T07:01:47.271Z,10.43
2017-06-10T07:04:14.930Z,11.97
2017-06-10T07:06:42.493Z,13.60
2017-06-10T07:09:10.062Z,8.93
2017-06-10T07:11:37.645Z,9.23
2017-06-10T07:14:05.189Z,19.13
2017-06-10T07:16:32.722Z,11.30
2017-06-10T07:19:00.254Z,9.97
2017-06-10T07:21:27.850Z,13.03
2017-06-10T07:23:55.383Z,9.17
2017-06-10T07:26:22.998Z,9.57
2017-06-10T07:28:50.543Z,11.77
2017-06-10T07:31:18.090Z,10.07
2017-06-10T07:33:45.657Z,8.90
2017-06-10T07:36:13.192Z,12.70
2017-06-10T07:38:40.781Z,12.30
2017-06-10T07:41:08.314Z,23.03
2017-06-10T07:43:35.901Z,9.53
2017-06-10T07:46:03.432Z,12.23
2017-06-10T07:48:31.018Z,9.43
2017-06-10T07:50:58.550Z,16.07
2017-06-10T07:53:26.139Z,13.70
2017-06-10T07:55:53.803Z,11.27
2017-06-10T07:58:21.335Z,9.37
2017-06-10T08:00:48.930Z,12.23
2017-06-10T08:03:16.490Z,12.43
2017-06-10T08:05:44.050Z,12.17
2017-06-10T08:08:11.598Z,7.00
2017-06-10T08:10:39.166Z,6.87
2017-06-10T08:13:06.730Z,15.00
2017-06-10T08:15:34.290Z,6.93
2017-06-10T08:18:01.950Z,11.23
2017-06-10T08:20:29.510Z,9.87
2017-06-10T08:22:57.058Z,17.37
2017-06-10T08:25:24.590Z,9.93
2017-06-10T08:27:52.912Z,11.63
2017-06-10T08:30:20.578Z,8.70
2017-06-10T08:32:48.141Z,13.50
2017-06-10T08:35:15.714Z,8.43
2017-06-10T08:37:43.263Z,5.70
2017-06-10T08:40:10.819Z,9.80
2017-06-10T08:42:38.396Z,56.77
2017-06-10T08:45:06.039Z,10.40
2017-06-10T08:47:33.711Z,10.30
2017-06-10T08:50:01.306Z,10.20
2017-06-10T08:52:28.926Z,36.83
2017-06-10T08:54:56.459Z,74.30
2017-06-10T08:57:23.988Z,54.57
2017-06-10T08:59:51.624Z,72.40
2017-06-10T09:02:19.154Z,19.03
2017-06-10T09:04:46.743Z,20.40
2017-06-10T09:07:14.297Z,16.17
2017-06-10T09:09:41.869Z,10.57
2017-06-10T09:12:09.421Z,10.67
2017-06-10T09:14:36.951Z,8.57
2017-06-10T09:17:04.543Z,11.73
2017-06-10T09:19:32.103Z,7.50
2017-06-10T09:21:59.658Z,7.17
2017-06-10T09:24:27.194Z,8.40
2017-06-10T09:26:54.758Z,6.90
2017-06-10T09:29:22.357Z,9.53
2017-06-10T09:31:49.892Z,8.87
2017-06-10T09:34:17.430Z,12.00
2017-06-10T09:36:44.972Z,7.70
2017-06-10T09:39:13.406Z,6.37
2017-06-10T09:41:40.971Z,9.30
2017-06-10T09:44:08.626Z,10.40
2017-06-10T09:46:36.284Z,9.93
2017-06-10T09:49:03.842Z,7.13
2017-06-10T09:51:31.424Z,8.83
2017-06-10T09:53:58.978Z,8.90
2017-06-10T09:56:26.639Z,8.90
2017-06-10T09:58:55.122Z,9.27
2017-06-10T10:01:22.786Z,7.33
2017-06-10T10:03:50.318Z,7.70
2017-06-10T10:06:17.902Z,11.83
2017-06-10T10:08:45.455Z,7.17
2017-06-10T10:11:12.986Z,9.60
2017-06-10T10:13:41.410Z,16.00
2017-06-10T10:16:08.977Z,10.07
2017-06-10T10:18:36.550Z,7.47
2017-06-10T10:21:04.190Z,9.93
2017-06-10T10:23:31.726Z,8.03
2017-06-10T10:25:59.321Z,8.37
2017-06-10T10:28:26.898Z,5.77
2017-06-10T10:30:54.543Z,8.00
2017-06-10T10:33:22.085Z,9.73
2017-06-10T10:35:49.656Z,6.67
2017-06-10T10:38:17.222Z,7.27
2017-06-10T10:40:44.774Z,7.03
2017-06-10T10:43:12.338Z,8.13
2017-06-10T10:45:39.901Z,9.57
2017-06-10T10:48:07.466Z,11.10
2017-06-10T10:50:35.020Z,9.27
2017-06-10T10:53:02.590Z,9.33
2017-06-10T10:55:30.154Z,11.23
2017-06-10T10:57:57.718Z,7.53
2017-06-10T11:00:25.243Z,7.73
2017-06-10T11:02:52.823Z,9.10
2017-06-10T11:05:20.394Z,5.67
2017-06-10T11:07:47.956Z,7.67
2017-06-10T11:10:15.626Z,8.17
2017-06-10T11:12:43.280Z,8.47
2017-06-10T11:15:10.839Z,9.07
2017-06-10T11:17:38.403Z,10.13
2017-06-10T11:20:05.954Z,7.97
2017-06-10T11:22:33.514Z,12.17
2017-06-10T11:25:01.074Z,9.57
2017-06-10T11:27:28.744Z,6.50
2017-06-10T11:29:56.302Z,9.47
2017-06-10T11:32:23.826Z,7.10
2017-06-10T11:34:51.419Z,9.00
2017-06-10T11:37:18.950Z,9.50
2017-06-10T11:39:46.518Z,7.67
2017-06-10T11:42:14.050Z,7.27
2017-06-10T11:44:42.474Z,8.00
2017-06-10T11:47:10.016Z,5.77
2017-06-10T11:49:37.551Z,8.17
2017-06-10T11:52:05.889Z,10.53
2017-06-10T11:54:33.443Z,7.97
2017-06-10T11:57:01.115Z,7.67
2017-06-10T11:59:28.646Z,9.67
2017-06-10T12:01:56.234Z,8.23
2017-06-10T12:04:23.766Z,10.10
2017-06-10T12:06:51.362Z,8.03
2017-06-10T12:09:18.906Z,6.00
2017-06-10T12:11:46.434Z,9.53
2017-06-10T12:14:14.041Z,5.83
2017-06-10T12:16:41.574Z,12.80
2017-06-10T12:19:09.138Z,10.90
2017-06-10T12:21:36.730Z,8.23
2017-06-10T12:24:04.261Z,7.87
2017-06-10T12:26:31.790Z,8.30
2017-06-10T12:29:00.085Z,7.27
2017-06-10T12:31:27.682Z,7.23
2017-06-10T12:33:55.215Z,8.17
2017-06-10T12:36:22.798Z,7.30
2017-06-10T12:38:50.353Z,7.77
2017-06-10T12:41:17.919Z,9.47
2017-06-10T12:43:45.495Z,11.93
2017-06-10T12:46:13.034Z,9.50
2017-06-10T12:48:40.697Z,9.30
2017-06-10T12:51:08.266Z,8.20
2017-06-10T12:53:35.831Z,11.50
2017-06-10T12:56:03.394Z,7.43
2017-06-10T12:58:30.938Z,6.43
2017-06-10T13:00:58.596Z,9.70
2017-06-10T13:03:26.176Z,8.90
2017-06-10T13:05:53.724Z,9.87
2017-06-10T13:08:21.277Z,8.83
2017-06-10T13:10:48.856Z,6.03
2017-06-10T13:13:16.404Z,6.70
2017-06-10T13:15:43.973Z,9.30
2017-06-10T13:18:11.510Z,8.07
2017-06-10T13:20:39.099Z,7.00
2017-06-10T13:23:06.762Z,7.20
2017-06-10T13:25:34.321Z,7.70
2017-06-10T13:28:01.854Z,11.20
2017-06-10T13:30:29.393Z,7.43
2017-06-10T13:32:57.704Z,8.20
2017-06-10T13:35:25.383Z,7.77
2017-06-10T13:37:52.938Z,9.20
2017-06-10T13:40:20.507Z,4.57
2017-06-10T13:42:48.062Z,5.60
2017-06-10T13:45:15.620Z,6.67
2017-06-10T13:47:43.278Z,8.23
2017-06-10T13:50:10.838Z,8.10
2017-06-10T13:52:38.410Z,6.80
2017-06-10T13:55:05.984Z,6.50
2017-06-10T13:57:33.530Z,8.43
2017-06-10T14:00:01.087Z,7.60
2017-06-10T14:02:28.614Z,5.97
2017-06-10T14:04:56.206Z,22.07
2017-06-10T14:07:23.774Z,5.07
2017-06-10T14:09:51.331Z,5.03
2017-06-10T14:12:18.862Z,5.40
2017-06-10T14:14:46.462Z,5.47
2017-06-10T14:17:14.120Z,4.93
2017-06-10T14:19:41.682Z,8.53
2017-06-10T14:22:09.341Z,6.90
2017-06-10T14:24:36.907Z,18.47
2017-06-10T14:27:04.460Z,8.70
2017-06-10T14:29:32.001Z,8.87
2017-06-10T14:31:59.588Z,4.60
2017-06-10T14:34:27.142Z,7.80
2017-06-10T14:36:54.677Z,15.97
2017-06-10T14:39:22.273Z,9.23
2017-06-10T14:41:49.820Z,15.73
2017-06-10T14:44:17.383Z,4.60
2017-06-10T14:46:44.919Z,4.00
2017-06-10T14:49:12.452Z,5.33
2017-06-10T14:51:40.785Z,3.87
2017-06-10T14:54:08.356Z,3.97
2017-06-10T14:56:35.912Z,6.57
2017-06-10T14:59:03.471Z,4.10
2017-06-10T15:01:31.012Z,4.73
2017-06-10T15:03:58.587Z,4.93
2017-06-10T15:06:26.150Z,5.87
2017-06-10T15:08:53.703Z,3.40
2017-06-10T15:11:21.275Z,3.60
2017-06-10T15:13:48.838Z,4.87
2017-06-10T15:16:16.386Z,4.10
2017-06-10T15:18:43.930Z,3.23
2017-06-10T15:21:11.466Z,5.20
2017-06-10T15:23:39.793Z,4.10
2017-06-10T15:26:07.446Z,9.97
2017-06-10T15:28:35.019Z,2.83
2017-06-10T15:31:02.598Z,7.07
2017-06-10T15:33:30.234Z,5.33
2017-06-10T15:35:57.794Z,6.93
2017-06-10T15:38:25.354Z,5.93
2017-06-10T15:40:52.887Z,7.23
2017-06-10T15:43:20.441Z,6.47
2017-06-10T15:45:48.737Z,6.67
2017-06-10T15:48:16.318Z,5.07
2017-06-10T15:50:43.851Z,4.20
2017-06-10T15:53:11.454Z,7.03
2017-06-10T15:55:39.010Z,5.53
2017-06-10T15:58:06.558Z,8.13
2017-06-10T16:00:34.130Z,7.40
2017-06-10T16:03:01.699Z,7.17
2017-06-10T16:05:29.353Z,6.07
2017-06-10T16:07:56.910Z,9.40
2017-06-10T16:10:24.446Z,5.43
2017-06-10T16:12:51.969Z,4.63
2017-06-10T16:15:19.595Z,5.57
2017-06-10T16:17:47.250Z,6.93
2017-06-10T16:20:14.818Z,4.43
2017-06-10T16:22:42.377Z,4.57
2017-06-10T16:25:09.939Z,3.67
2017-06-10T16:27:37.518Z,2.83
2017-06-10T16:30:05.051Z,5.27
2017-06-10T16:32:32.598Z,6.47
2017-06-10T16:35:00.181Z,3.90
2017-06-10T16:37:27.739Z,7.00
2017-06-10T16:39:55.395Z,3.10
2017-06-10T16:42:23.022Z,6.70
2017-06-10T16:44:51.314Z,6.93
2017-06-10T16:47:18.858Z,5.67
2017-06-10T16:49:46.460Z,3.00
2017-06-10T16:52:14.126Z,13.17
2017-06-10T16:54:41.683Z,26.90
2017-06-10T16:57:09.254Z,7.47
2017-06-10T16:59:36.785Z,13.47
2017-06-10T17:02:04.350Z,21.80
2017-06-10T17:04:31.935Z,9.53
2017-06-10T17:06:59.494Z,7.83
2017-06-10T17:09:27.150Z,9.30
2017-06-10T17:11:54.690Z,9.57
2017-06-10T17:14:22.275Z,10.23
2017-06-10T17:16:49.842Z,18.73
2017-06-10T17:19:17.375Z,8.83
2017-06-10T17:21:44.961Z,4.47
2017-06-10T17:24:12.510Z,5.80
2017-06-10T17:26:40.096Z,8.70
2017-06-10T17:29:07.649Z,7.53
2017-06-10T17:31:35.312Z,7.30
2017-06-10T17:34:02.862Z,4.50
2017-06-10T17:36:30.394Z,4.20
2017-06-10T17:38:57.998Z,6.60
2017-06-10T17:41:25.537Z,14.97
2017-06-10T17:43:53.105Z,5.03
2017-06-10T17:46:20.666Z,14.10
2017-06-10T17:48:48.259Z,8.63
2017-06-10T17:51:15.795Z,9.97
2017-06-10T17:53:43.355Z,8.50
2017-06-10T17:56:10.911Z,8.70
2017-06-10T18:01:32.557Z,5.73
2017-06-10T18:04:00.100Z,4.17
2017-06-10T18:06:27.674Z,3.80
2017-06-10T18:08:55.239Z,4.90
2017-06-10T18:11:22.953Z,5.57
2017-06-10T18:13:51.422Z,5.10
2017-06-10T18:16:19.739Z,6.77
2017-06-10T18:18:47.275Z,5.80
2017-06-10T18:21:15.574Z,10.20
2017-06-10T18:23:48.956Z,5.77
2017-06-10T18:26:17.247Z,3.83
2017-06-10T18:28:44.802Z,7.07
2017-06-10T18:31:12.334Z,4.60
2017-06-10T18:33:39.964Z,6.47
2017-06-10T18:36:07.503Z,6.40
2017-06-10T18:38:35.034Z,6.57
2017-06-10T18:41:03.402Z,8.77
2017-06-10T18:43:31.715Z,4.23
2017-06-10T18:45:59.253Z,7.30
2017-06-10T18:48:27.832Z,8.20
2017-06-10T18:50:56.162Z,5.97
2017-06-10T18:53:23.717Z,7.10
2017-06-10T18:55:51.271Z,4.33
2017-06-10T18:58:18.934Z,10.57
2017-06-10T19:00:46.512Z,11.63
2017-06-10T19:03:14.063Z,9.97
2017-06-10T19:05:41.607Z,9.23
2017-06-10T19:08:09.183Z,9.20
2017-06-10T19:10:36.762Z,12.60
2017-06-10T19:13:04.315Z,6.77
2017-06-10T19:15:31.891Z,7.63
2017-06-10T19:17:59.557Z,6.77
2017-06-10T19:20:27.290Z,8.87
2017-06-10T19:22:54.877Z,3.70
2017-06-10T19:25:22.416Z,13.37
2017-06-10T19:27:49.954Z,4.67
2017-06-10T19:30:17.558Z,10.30
2017-06-10T19:32:45.211Z,32.60
2017-06-10T19:35:12.782Z,8.60
2017-06-10T19:37:40.320Z,25.23
2017-06-10T19:40:07.872Z,7.03
2017-06-10T19:42:35.421Z,8.23
2017-06-10T19:45:02.988Z,4.73
2017-06-10T19:47:30.672Z,24.53
2017-06-10T19:49:58.242Z,17.23
2017-06-10T19:52:25.789Z,4.30
2017-06-10T19:54:53.439Z,10.53
2017-06-10T19:57:21.034Z,7.47
2017-06-10T19:59:48.572Z,7.40
2017-06-10T20:02:16.144Z,9.37
2017-06-10T20:04:43.810Z,5.03
2017-06-10T20:07:11.347Z,6.40
2017-06-10T20:09:38.878Z,12.43
2017-06-10T20:12:07.186Z,9.10
2017-06-10T20:14:34.766Z,5.90
2017-06-10T20:17:02.307Z,6.90
2017-06-10T20:19:29.885Z,8.80
2017-06-10T20:21:57.471Z,18.10
2017-06-10T20:24:25.038Z,7.33
2017-06-10T20:26:52.600Z,15.90
2017-06-10T20:29:20.144Z,24.17
2017-06-10T20:31:47.706Z,18.10
2017-06-10T20:34:15.286Z,21.20
2017-06-10T20:36:42.924Z,20.93
2017-06-10T20:39:10.480Z,14.23
2017-06-10T20:41:38.019Z,13.50
2017-06-10T20:44:05.602Z,13.47
2017-06-10T20:46:33.162Z,13.67
2017-06-10T20:49:00.723Z,14.70
2017-06-10T20:51:28.279Z,12.03
2017-06-10T20:53:55.869Z,10.90
2017-06-10T20:56:23.495Z,16.83
2017-06-10T20:58:51.083Z,8.80
2017-06-10T21:01:18.636Z,7.77
2017-06-10T21:03:46.206Z,6.87
2017-06-10T21:06:13.778Z,7.27
2017-06-10T21:08:41.407Z,13.80
2017-06-10T21:11:09.066Z,8.53
2017-06-10T21:13:36.626Z,8.97
2017-06-10T21:16:04.202Z,9.27
2017-06-10T21:18:31.878Z,7.90
2017-06-10T21:20:59.419Z,10.00
2017-06-10T21:23:26.980Z,9.27
2017-06-10T21:25:54.538Z,10.67
2017-06-10T21:28:22.200Z,10.03
2017-06-10T21:30:49.766Z,8.50
2017-06-10T21:33:17.438Z,12.53
2017-06-10T21:35:44.970Z,12.50
2017-06-10T21:38:12.517Z,7.60
2017-06-10T21:40:40.122Z,8.03
2017-06-10T21:43:07.681Z,11.47
2017-06-10T21:45:35.344Z,13.10
2017-06-10T21:48:02.885Z,12.80
2017-06-10T21:50:30.567Z,16.27
2017-06-10T21:52:58.130Z,19.70
2017-06-10T21:55:25.683Z,28.70
2017-06-10T21:57:53.223Z,34.20
2017-06-10T22:00:20.766Z,31.73
2017-06-10T22:02:48.367Z,39.60
2017-06-10T22:05:15.943Z,49.63
2017-06-10T22:07:43.600Z,57.50
2017-06-10T22:10:11.138Z,74.80
2017-06-10T22:12:38.814Z,91.87
2017-06-10T22:15:06.363Z,125.07
2017-06-10T22:17:33.926Z,144.70
2017-06-10T22:20:01.499Z,126.30
2017-06-10T22:22:29.060Z,162.33
2017-06-10T22:24:56.637Z,183.53
2017-06-10T22:27:24.283Z,173.40
2017-06-10T22:29:51.941Z,176.00
2017-06-10T22:32:19.494Z,188.17
2017-06-10T22:34:47.072Z,213.67
2017-06-10T22:37:14.617Z,206.10
2017-06-10T22:39:42.170Z,217.23
2017-06-10T22:42:09.726Z,214.37
2017-06-10T22:44:37.303Z,190.07
2017-06-10T22:47:04.842Z,202.43
2017-06-10T22:49:32.438Z,195.13
2017-06-10T22:52:00.035Z,180.07
2017-06-10T22:54:28.346Z,189.00
2017-06-10T22:56:55.917Z,197.53
2017-06-10T22:59:23.499Z,182.93
2017-06-10T23:01:51.178Z,176.67
2017-06-10T23:04:18.721Z,154.93
2017-06-10T23:06:46.278Z,153.23
2017-06-10T23:09:13.838Z,156.80
2017-06-10T23:11:41.398Z,143.93
2017-06-10T23:14:08.943Z,134.30
2017-06-10T23:16:36.566Z,145.30
2017-06-10T23:19:04.906Z,134.57
2017-06-10T23:21:32.462Z,93.63
2017-06-10T23:24:00.139Z,81.13
2017-06-10T23:26:27.690Z,75.57
2017-06-10T23:28:55.281Z,64.20
2017-06-10T23:31:22.829Z,67.33
2017-06-10T23:33:50.366Z,59.23
2017-06-10T23:36:18.031Z,51.70
2017-06-10T23:38:45.578Z,46.17
2017-06-10T23:41:13.145Z,33.83
2017-06-10T23:43:40.708Z,41.90
2017-06-10T23:46:08.290Z,37.00
2017-06-10T23:48:35.823Z,34.80
2017-06-10T23:51:03.426Z,32.53
2017-06-10T23:53:30.975Z,35.60
2017-06-10T23:55:58.708Z,26.03
2017-06-10T23:58:26.292Z,28.73
